Winter Haven, FL

7:38 AM EDT on May 24, 2017 (GMT -0400)
| | Change Station
Active Advisory: Lake Wind Advisory

Elev -9999 ft 0.00 °N, 0.00 °E | Updated 0 second ago

Partly Cloudy
Partly Cloudy
°F
Feels Like °F
N
Wind Variable Wind from North
Gusts mph

Today
High -- | Low -- °F
--% Chance of Precip.
Yesterday
High -- | Low -- °F
Precip. -- in
Pressure 29.80 in
Visibility 10.0 miles
Clouds Few 3900 ft
Dew Point Not available.
Humidity Not available.
Rainfall --
Snow Depth Not available.
6:32 AM 8:14 PM
Waning Crescent, 3% visible
METAR KGIF 241053Z AUTO 19010KT 10SM FEW039 24/22 A2981 RMK AO2 SLP091 T02440222
Pressure 29.80 in
Visibility 10.0 miles
Clouds Few 3900 ft
Dew Point Not available.
Humidity Not available.
Rainfall --
Snow Depth Not available.
6:32 AM 8:14 PM
Waning Crescent, 3% visible
METAR KGIF 241053Z AUTO 19010KT 10SM FEW039 24/22 A2981 RMK AO2 SLP091 T02440222

Get Your Daily Forecast Email!

Thanks for signing up!

Be on the lookout for a verification email in your inbox.

You'll start receiving severe weather alerts in your inbox..

×

10-Day Weather Forecast

Almanac

Astronomy

May. 24, 2017 Rise Set
Actual Time
Civil Twilight
Nautical Twilight
Astronomical Twilight
Moon
Length of Visible Light
Length of Day
Tomorrow will be .
, % of the Moon is Illuminated

Today's Extremes

State Highs State Lows

Community

WunderPhotos

Category 6

Welcome to Category 6. This is the collective home for Weather Underground's featured writeups by Dr. Jeff Masters (right), Bob Henson (left), Chris Burt, and other regular contributors.

Nearby

Air Quality

  Air Quality AQ Index Pollutant
Not available.

Snow Depth

Station Depth Elevation

Earthquake Activity

City Distance Mag. Time & Date
Minimum magnitude displayed is 2.5.

Coastal Water Temperatures

Place Temperature

Stations

Nearby Weather Stations

Station Location Temp. Windchill Dew Point Humidity Wind Precip. Elev Updated Type
                   

Watches & Warnings

Lake Wind Advisory
Issued: 4:20 AM EDT May. 24, 2017 – National Weather Service

... Lake Wind Advisory in effect from 11 am this morning to 10 PM
EDT this evening...

The National Weather Service in Tampa Bay area - Ruskin FL has
issued a lake Wind Advisory, which is in effect from 11 am this
morning to 10 PM EDT this evening.

* Timing... 11 am EDT through 10 PM EDT today.

* Winds... 20 to 25 mph with higher gusts.

* Impacts... strong and gusty winds will create choppy and
difficult boating conditions on area lakes.

Precautionary/preparedness actions...

A lake Wind Advisory indicates that winds will cause rough chop
on area lakes. Small boats will be especially prone to capsizing.